createdAt,value
2023-04-01T00:00:27.578Z,12.06
2023-04-01T00:01:27.589Z,12.06
2023-04-01T00:02:27.605Z,12.07
2023-04-01T00:03:27.812Z,12.10
2023-04-01T00:04:27.560Z,12.12
2023-04-01T00:05:27.541Z,12.07
2023-04-01T00:06:27.522Z,12.07
2023-04-01T00:07:30.744Z,12.12
2023-04-01T00:08:27.506Z,12.07
2023-04-01T00:09:29.972Z,12.03
2023-04-01T00:10:27.482Z,12.07
2023-04-01T00:11:27.495Z,12.09
2023-04-01T00:12:27.472Z,12.06
2023-04-01T00:13:27.518Z,12.04
2023-04-01T00:14:27.440Z,11.99
2023-04-01T00:15:27.433Z,12.04
2023-04-01T00:16:27.443Z,12.04
2023-04-01T00:17:27.485Z,11.97
2023-04-01T00:18:27.412Z,12.03
2023-04-01T00:19:27.435Z,12.03
2023-04-01T00:20:27.388Z,12.03
2023-04-01T00:21:27.364Z,12.00
2023-04-01T00:22:27.363Z,11.88
2023-04-01T00:23:27.354Z,11.99
2023-04-01T00:24:27.350Z,12.00
2023-04-01T00:25:27.343Z,12.06
2023-04-01T00:26:27.327Z,11.86
2023-04-01T00:27:27.311Z,11.87
2023-04-01T00:28:27.310Z,11.86
2023-04-01T00:29:27.297Z,11.88
2023-04-01T00:30:27.301Z,11.90
2023-04-01T00:31:27.328Z,11.94
2023-04-01T00:32:27.310Z,11.88
2023-04-01T00:33:27.260Z,11.86
2023-04-01T00:34:27.257Z,11.81
2023-04-01T00:35:27.239Z,11.87
2023-04-01T00:36:27.309Z,11.83
2023-04-01T00:37:27.222Z,11.86
2023-04-01T00:38:27.208Z,11.86
2023-04-01T00:39:27.202Z,11.77
2023-04-01T00:40:27.192Z,11.91
2023-04-01T00:41:27.206Z,11.87
2023-04-01T00:42:27.176Z,11.80
2023-04-01T00:43:27.182Z,11.83
2023-04-01T00:44:27.177Z,11.87
2023-04-01T00:45:27.145Z,11.84
2023-04-01T00:46:27.184Z,11.95
2023-04-01T00:47:27.150Z,11.90
2023-04-01T00:48:27.114Z,11.90
2023-04-01T00:49:27.109Z,11.90
2023-04-01T00:50:27.101Z,11.94
2023-04-01T00:51:27.088Z,11.87
2023-04-01T00:52:27.069Z,11.88
2023-04-01T00:53:27.064Z,12.00
2023-04-01T00:54:27.055Z,11.99
2023-04-01T00:55:27.043Z,12.00
2023-04-01T00:56:27.044Z,12.06
2023-04-01T00:57:27.093Z,12.07
2023-04-01T00:58:27.017Z,12.10
2023-04-01T00:59:27.002Z,12.00
2023-04-01T01:00:26.997Z,12.04
2023-04-01T01:01:27.032Z,12.02
2023-04-01T01:02:27.061Z,12.03
2023-04-01T01:03:27.020Z,12.04
2023-04-01T01:04:26.956Z,12.12
2023-04-01T01:05:27.580Z,12.07
2023-04-01T01:06:26.948Z,12.07
2023-04-01T01:07:26.931Z,12.12
2023-04-01T01:08:26.926Z,12.07
2023-04-01T01:09:26.908Z,12.07
2023-04-01T01:10:26.911Z,12.09
2023-04-01T01:11:27.953Z,12.10
2023-04-01T01:12:26.872Z,12.06
2023-04-01T01:13:26.865Z,12.03
2023-04-01T01:14:26.859Z,12.06
2023-04-01T01:15:26.841Z,11.94
2023-04-01T01:16:26.906Z,12.04
2023-04-01T01:17:26.855Z,11.97
2023-04-01T01:18:26.815Z,12.02
2023-04-01T01:19:26.798Z,12.00
2023-04-01T01:20:27.073Z,11.91
2023-04-01T01:21:26.783Z,11.86
2023-04-01T01:22:26.771Z,11.91
2023-04-01T01:23:26.767Z,11.90
2023-04-01T01:24:26.751Z,12.04
2023-04-01T01:25:26.742Z,12.00
2023-04-01T01:26:26.731Z,12.00
2023-04-01T01:27:26.722Z,12.00
2023-04-01T01:28:26.715Z,11.99
2023-04-01T01:29:26.707Z,11.87
2023-04-01T01:30:26.712Z,11.95
2023-04-01T01:31:26.822Z,11.94
2023-04-01T01:32:26.706Z,11.87
2023-04-01T01:33:26.658Z,11.95
2023-04-01T01:34:26.648Z,11.94
2023-04-01T01:36:02.295Z,12.06
2023-04-01T01:36:26.637Z,12.06
2023-04-01T01:38:58.233Z,11.88
2023-04-01T01:39:58.214Z,11.84
2023-04-01T01:42:02.159Z,11.86
2023-04-01T01:43:02.133Z,11.91
2023-04-01T01:45:06.089Z,11.87
2023-04-01T01:46:06.165Z,11.87
2023-04-01T01:48:10.023Z,11.83
2023-04-01T01:49:09.992Z,11.87
2023-04-01T01:51:13.940Z,11.86
2023-04-01T01:52:13.919Z,11.78
2023-04-01T01:54:17.890Z,11.94
2023-04-01T01:55:17.837Z,11.86
2023-04-01T01:57:21.832Z,11.86
2023-04-01T01:58:21.775Z,11.88
2023-04-01T02:00:25.718Z,11.81
2023-04-01T02:01:25.767Z,11.81
2023-04-01T02:03:29.637Z,11.90
2023-04-01T02:04:29.637Z,11.83
2023-04-01T02:06:33.604Z,11.90
2023-04-01T02:07:33.548Z,11.90
2023-04-01T02:09:37.504Z,11.81
2023-04-01T02:10:37.486Z,11.81
2023-04-01T02:12:41.419Z,11.86
2023-04-01T02:13:41.435Z,11.86
2023-04-01T02:15:45.369Z,11.86
2023-04-01T02:16:45.338Z,11.83
2023-04-01T02:18:38.193Z,11.84
2023-04-01T02:19:38.176Z,11.77
2023-04-01T02:21:42.126Z,11.86
2023-04-01T02:22:42.104Z,11.78
2023-04-01T02:24:46.058Z,11.80
2023-04-01T02:25:46.035Z,11.70
2023-04-01T02:27:49.975Z,11.69
2023-04-01T02:28:49.964Z,11.68
2023-04-01T02:30:53.907Z,11.65
2023-04-01T02:31:53.932Z,11.55
2023-04-01T02:33:57.830Z,11.54
2023-04-01T02:34:57.814Z,11.62
2023-04-01T02:37:01.802Z,11.60
2023-04-01T02:38:01.747Z,11.48
2023-04-01T02:40:05.680Z,11.51
2023-04-01T02:41:05.666Z,11.55
2023-04-01T02:43:09.628Z,11.52
2023-04-01T02:44:09.598Z,11.47
2023-04-01T02:46:13.568Z,11.55
2023-04-01T02:47:13.535Z,11.47
2023-04-01T02:49:06.400Z,11.48
2023-04-01T02:50:06.419Z,11.52
2023-04-01T02:52:10.339Z,11.36
2023-04-01T02:53:10.311Z,11.36
2023-04-01T02:55:14.268Z,11.36
2023-04-01T02:56:14.248Z,11.40
2023-04-01T02:58:18.193Z,11.43
2023-04-01T02:59:18.177Z,11.40
2023-04-01T03:01:22.164Z,11.44
2023-04-01T03:02:22.171Z,11.36
2023-04-01T03:04:26.039Z,11.35
2023-04-01T03:05:26.025Z,11.40
2023-04-01T03:07:29.975Z,11.36
2023-04-01T03:08:29.955Z,11.35
2023-04-01T03:10:33.902Z,11.35
2023-04-01T03:11:33.887Z,11.37
2023-04-01T03:13:37.823Z,11.40
2023-04-01T03:14:37.812Z,11.51
2023-04-01T03:16:41.792Z,11.48
2023-04-01T03:17:41.795Z,11.50
2023-04-01T03:19:45.703Z,11.44
2023-04-01T03:20:45.661Z,11.44
2023-04-01T03:22:49.644Z,11.57
2023-04-01T03:23:49.614Z,11.52
2023-04-01T03:25:53.538Z,11.55
2023-04-01T03:26:53.542Z,11.54
2023-04-01T03:28:46.381Z,11.54
2023-04-01T03:29:46.381Z,11.52
2023-04-01T03:31:50.314Z,11.55
2023-04-01T03:32:50.346Z,11.52
2023-04-01T03:34:54.242Z,11.48
2023-04-01T03:35:54.247Z,11.50
2023-04-01T03:37:58.182Z,11.52
2023-04-01T03:38:58.154Z,11.51
2023-04-01T03:41:02.721Z,11.51
2023-04-01T03:42:02.702Z,11.50
2023-04-01T03:44:06.646Z,11.43
2023-04-01T03:45:06.624Z,11.51
2023-04-01T03:47:10.574Z,11.44
2023-04-01T03:48:10.693Z,11.47
2023-04-01T03:50:14.495Z,11.47
2023-04-01T03:51:14.491Z,11.44
2023-04-01T03:53:18.452Z,11.48
2023-04-01T03:54:18.439Z,11.44
2023-04-01T03:56:22.380Z,11.52
2023-04-01T03:57:22.418Z,11.57
2023-04-01T03:59:15.263Z,11.52
2023-04-01T04:00:15.250Z,11.57
2023-04-01T04:02:19.224Z,11.51
2023-04-01T04:03:19.392Z,11.50
2023-04-01T04:05:23.120Z,11.48
2023-04-01T04:06:23.110Z,11.47
2023-04-01T04:08:15.986Z,11.52
2023-04-01T04:09:15.978Z,11.47
2023-04-01T04:11:19.917Z,11.57
2023-04-01T04:12:19.892Z,11.59
2023-04-01T04:14:23.835Z,11.54
2023-04-01T04:15:23.815Z,11.51
2023-04-01T04:17:27.871Z,11.51
2023-04-01T04:18:27.750Z,11.55
2023-04-01T04:20:31.693Z,11.45
2023-04-01T04:21:31.674Z,11.51
2023-04-01T04:23:35.620Z,11.54
2023-04-01T04:24:35.598Z,11.65
2023-04-01T04:26:39.538Z,11.63
2023-04-01T04:27:39.533Z,11.63
2023-04-01T04:29:43.471Z,11.70
2023-04-01T04:30:43.449Z,11.63
2023-04-01T04:32:47.424Z,11.68
2023-04-01T04:33:47.386Z,11.62
2023-04-01T04:35:51.340Z,11.62
2023-04-01T04:36:51.304Z,11.65
2023-04-01T04:38:44.180Z,11.65
2023-04-01T04:39:44.158Z,11.55
2023-04-01T04:41:48.114Z,11.66
2023-04-01T04:42:48.086Z,11.65
2023-04-01T04:44:52.034Z,11.62
2023-04-01T04:45:52.016Z,11.65
2023-04-01T04:47:56.023Z,11.62
2023-04-01T04:48:55.934Z,11.68
2023-04-01T04:50:59.878Z,11.69
2023-04-01T04:51:59.860Z,11.77
2023-04-01T04:54:03.813Z,11.70
2023-04-01T04:55:03.792Z,11.63
2023-04-01T04:57:07.811Z,11.54
2023-04-01T04:58:07.717Z,11.65
2023-04-01T05:00:11.657Z,11.59
2023-04-01T05:01:11.689Z,11.54
2023-04-01T05:03:15.779Z,11.57
2023-04-01T05:04:15.602Z,11.57
2023-04-01T05:06:21.654Z,11.59
2023-04-01T05:07:19.541Z,11.54
2023-04-01T05:09:12.465Z,11.59
2023-04-01T05:10:12.371Z,11.55
2023-04-01T05:12:16.311Z,11.55
2023-04-01T05:13:16.307Z,11.54
2023-04-01T05:15:20.251Z,11.55
2023-04-01T05:16:20.251Z,11.60
2023-04-01T05:18:24.212Z,11.59
2023-04-01T05:19:24.150Z,11.59
2023-04-01T05:21:28.109Z,11.59
2023-04-01T05:22:28.088Z,11.54
2023-04-01T05:24:32.021Z,11.65
2023-04-01T05:25:32.354Z,11.57
2023-04-01T05:27:35.951Z,11.68
2023-04-01T05:28:35.932Z,11.65
2023-04-01T05:30:40.005Z,11.52
2023-04-01T05:31:39.886Z,11.59
2023-04-01T05:33:43.827Z,11.52
2023-04-01T05:34:44.743Z,11.62
2023-04-01T05:36:47.741Z,11.69
2023-04-01T05:37:47.733Z,11.57
2023-04-01T05:39:51.675Z,11.59
2023-04-01T05:40:51.660Z,11.54
2023-04-01T05:42:55.595Z,11.54
2023-04-01T05:43:55.577Z,11.54
2023-04-01T05:45:59.543Z,11.55
2023-04-01T05:46:59.505Z,11.55
2023-04-01T05:48:52.383Z,11.51
2023-04-01T05:49:52.367Z,11.54
2023-04-01T05:51:56.301Z,11.57
2023-04-01T05:52:56.291Z,11.57
2023-04-01T05:55:00.245Z,11.54
2023-04-01T05:56:00.211Z,11.54
2023-04-01T05:58:04.229Z,11.54
2023-04-01T05:59:04.143Z,11.59
2023-04-01T06:01:11.309Z,11.65
2023-04-01T06:02:08.065Z,11.62
2023-04-01T06:04:12.106Z,11.65
2023-04-01T06:05:11.990Z,11.62
2023-04-01T06:07:15.944Z,11.75
2023-04-01T06:08:17.154Z,11.69
2023-04-01T06:10:19.885Z,11.69
2023-04-01T06:11:19.860Z,11.72
2023-04-01T06:13:23.816Z,11.70
2023-04-01T06:14:23.787Z,11.75
2023-04-01T06:16:27.750Z,11.72
2023-04-01T06:17:27.727Z,11.70
2023-04-01T06:19:31.663Z,11.69
2023-04-01T06:20:31.640Z,11.75
2023-04-01T06:22:35.600Z,11.75
2023-04-01T06:23:35.580Z,11.72
2023-04-01T06:25:39.511Z,11.75
2023-04-01T06:26:39.494Z,11.78
2023-04-01T06:28:32.370Z,11.68
2023-04-01T06:29:32.370Z,11.68
2023-04-01T06:31:36.327Z,11.69
2023-04-01T06:32:36.312Z,11.78
2023-04-01T06:34:40.228Z,11.77
2023-04-01T06:35:40.222Z,11.80
2023-04-01T06:37:44.164Z,11.77
2023-04-01T06:38:44.135Z,11.78
2023-04-01T06:40:48.081Z,11.81
2023-04-01T06:41:48.074Z,11.83
2023-04-01T06:43:52.017Z,11.88
2023-04-01T06:44:51.983Z,11.91
2023-04-01T06:46:55.929Z,11.80
2023-04-01T06:47:55.933Z,11.81
2023-04-01T06:49:59.860Z,11.80
2023-04-01T06:50:59.841Z,11.94
2023-04-01T06:53:03.829Z,11.90
2023-04-01T06:54:03.782Z,11.97
2023-04-01T06:56:07.730Z,11.94
2023-04-01T06:57:07.780Z,11.84
2023-04-01T06:59:00.603Z,11.90
2023-04-01T07:00:00.572Z,11.86
2023-04-01T07:02:04.509Z,11.90
2023-04-01T07:03:06.736Z,11.87
2023-04-01T07:05:08.446Z,12.03
2023-04-01T07:06:08.421Z,12.04
2023-04-01T07:08:12.381Z,12.04
2023-04-01T07:09:12.356Z,12.02
2023-04-01T07:11:16.311Z,12.06
2023-04-01T07:12:16.293Z,12.12
2023-04-01T07:14:20.235Z,12.06
2023-04-01T07:15:20.232Z,12.17
2023-04-01T07:17:24.197Z,12.24
2023-04-01T07:18:24.140Z,12.28
2023-04-01T07:20:28.088Z,12.25
2023-04-01T07:21:28.070Z,12.27
2023-04-01T07:23:32.016Z,12.28
2023-04-01T07:24:32.009Z,12.36
2023-04-01T07:26:36.113Z,12.36
2023-04-01T07:27:35.934Z,12.37
2023-04-01T07:29:39.876Z,12.40
2023-04-01T07:30:39.862Z,12.49
2023-04-01T07:32:43.815Z,12.39
2023-04-01T07:33:43.782Z,12.54
2023-04-01T07:35:47.746Z,12.36
2023-04-01T07:36:47.711Z,12.39
2023-04-01T07:38:40.596Z,12.36
2023-04-01T07:39:40.568Z,12.47
2023-04-01T07:41:44.520Z,12.55
2023-04-01T07:42:44.509Z,12.58
2023-04-01T07:44:48.452Z,12.53
2023-04-01T07:45:48.437Z,12.64
2023-04-01T07:47:52.415Z,12.65
2023-04-01T07:48:52.369Z,12.75
2023-04-01T07:50:56.316Z,12.78
2023-04-01T07:51:56.300Z,12.75
2023-04-01T07:54:00.245Z,12.87
2023-04-01T07:55:00.221Z,12.86
2023-04-01T07:57:04.261Z,12.82
2023-04-01T07:58:04.157Z,12.79
2023-04-01T08:00:08.102Z,12.76
2023-04-01T08:01:08.080Z,12.79
2023-04-01T08:03:12.156Z,12.79
2023-04-01T08:04:12.092Z,12.78
2023-04-01T08:06:15.974Z,12.79
2023-04-01T08:07:15.944Z,12.78
2023-04-01T08:09:08.825Z,12.85
2023-04-01T08:10:08.805Z,12.79
2023-04-01T08:12:12.757Z,12.78
2023-04-01T08:13:12.730Z,12.79
2023-04-01T08:15:16.667Z,12.70
2023-04-01T08:16:16.707Z,12.65
2023-04-01T08:18:20.604Z,12.68
2023-04-01T08:19:20.584Z,12.68
2023-04-01T08:21:24.537Z,12.50
2023-04-01T08:22:24.511Z,12.50
2023-04-01T08:24:31.856Z,12.50
2023-04-01T08:25:28.443Z,12.39
2023-04-01T08:27:32.387Z,12.39
2023-04-01T08:28:32.362Z,12.39
2023-04-01T08:30:36.330Z,12.40
2023-04-01T08:31:36.338Z,12.47
2023-04-01T08:33:40.242Z,12.39
2023-04-01T08:34:40.222Z,12.32
2023-04-01T08:36:44.164Z,12.42
2023-04-01T08:37:44.152Z,12.46
2023-04-01T08:39:48.100Z,12.46
2023-04-01T08:40:48.078Z,12.54
2023-04-01T08:42:52.025Z,12.54
2023-04-01T08:43:52.008Z,12.49
2023-04-01T08:45:55.974Z,12.53
2023-04-01T08:46:55.935Z,12.47
2023-04-01T08:48:48.809Z,12.50
2023-04-01T08:49:48.802Z,12.40
2023-04-01T08:51:52.738Z,12.37
2023-04-01T08:52:52.721Z,12.42
2023-04-01T08:54:56.669Z,12.43
2023-04-01T08:55:56.650Z,12.43
2023-04-01T08:58:00.597Z,12.37
2023-04-01T08:59:00.593Z,12.37
2023-04-01T09:01:04.528Z,12.39
2023-04-01T09:02:04.533Z,12.40
2023-04-01T09:04:08.566Z,12.46
2023-04-01T09:05:08.446Z,12.53
2023-04-01T09:07:12.935Z,12.53
2023-04-01T09:08:12.371Z,12.49
2023-04-01T09:10:16.322Z,12.49
2023-04-01T09:11:16.299Z,12.64
2023-04-01T09:13:20.270Z,12.70
2023-04-01T09:14:20.256Z,12.58
2023-04-01T09:16:13.387Z,12.53
2023-04-01T09:17:13.310Z,12.54
2023-04-01T09:19:06.203Z,12.50
2023-04-01T09:20:06.197Z,12.47
2023-04-01T09:22:10.200Z,12.42
2023-04-01T09:23:10.169Z,12.42
2023-04-01T09:25:14.118Z,12.39
2023-04-01T09:26:14.086Z,12.39
2023-04-01T09:27:14.073Z,12.35
2023-04-01T09:28:14.076Z,12.31
2023-04-01T09:29:14.074Z,12.29
2023-04-01T09:30:14.052Z,12.36
2023-04-01T09:31:14.103Z,12.42
2023-04-01T09:32:14.030Z,12.36
2023-04-01T09:33:14.035Z,12.37
2023-04-01T09:34:14.013Z,12.37
2023-04-01T09:35:13.998Z,12.43
2023-04-01T09:36:14.139Z,12.36
2023-04-01T09:37:13.990Z,12.31
2023-04-01T09:38:13.982Z,12.35
2023-04-01T09:39:13.966Z,12.32
2023-04-01T09:40:13.961Z,12.36
2023-04-01T09:41:13.953Z,12.31
2023-04-01T09:42:13.945Z,12.35
2023-04-01T09:43:13.937Z,12.35
2023-04-01T09:44:13.927Z,12.27
2023-04-01T09:45:13.914Z,12.31
2023-04-01T09:46:13.929Z,12.42
2023-04-01T09:47:13.894Z,12.28
2023-04-01T09:48:13.910Z,12.35
2023-04-01T09:49:13.880Z,12.31
2023-04-01T09:50:13.863Z,12.29
2023-04-01T09:51:13.862Z,12.39
2023-04-01T09:52:13.852Z,12.42
2023-04-01T09:53:13.848Z,12.40
2023-04-01T09:54:13.828Z,12.42
2023-04-01T09:55:13.817Z,12.45
2023-04-01T09:56:13.820Z,12.43
2023-04-01T09:57:13.847Z,12.50
2023-04-01T09:58:13.792Z,12.62
2023-04-01T09:59:13.795Z,12.58
2023-04-01T10:00:13.768Z,12.68
2023-04-01T10:01:13.797Z,12.65
2023-04-01T10:02:13.757Z,12.73
2023-04-01T10:03:13.841Z,12.75
2023-04-01T10:04:13.739Z,12.76
2023-04-01T10:05:13.783Z,12.82
2023-04-01T10:06:13.756Z,12.75
2023-04-01T10:07:13.718Z,12.78
2023-04-01T10:08:13.700Z,12.75
2023-04-01T10:09:13.689Z,12.79
2023-04-01T10:10:13.682Z,12.93
2023-04-01T10:11:13.677Z,12.90
2023-04-01T10:12:13.667Z,12.76
2023-04-01T10:13:13.656Z,12.79
2023-04-01T10:14:13.649Z,12.83
2023-04-01T10:15:13.632Z,12.75
2023-04-01T10:16:13.688Z,12.90
2023-04-01T10:17:13.621Z,12.79
2023-04-01T10:18:13.616Z,12.78
2023-04-01T10:19:13.600Z,12.80
2023-04-01T10:20:13.590Z,12.62
2023-04-01T10:21:13.589Z,12.62
2023-04-01T10:22:13.619Z,12.62
2023-04-01T10:23:13.613Z,12.73
2023-04-01T10:24:13.563Z,12.64
2023-04-01T10:25:13.544Z,12.75
2023-04-01T10:26:13.572Z,12.76
2023-04-01T10:27:13.525Z,12.76
2023-04-01T10:28:13.526Z,12.78
2023-04-01T10:29:13.514Z,12.70
2023-04-01T10:30:13.534Z,12.73
2023-04-01T10:31:13.543Z,12.76
2023-04-01T10:32:13.722Z,12.78
2023-04-01T10:33:13.485Z,12.79
2023-04-01T10:34:13.467Z,12.82
2023-04-01T10:35:13.467Z,12.85
2023-04-01T10:36:13.474Z,12.87
2023-04-01T10:37:13.441Z,12.79
2023-04-01T10:38:13.427Z,12.85
2023-04-01T10:39:13.419Z,12.79
2023-04-01T10:40:13.414Z,12.90
2023-04-01T10:41:13.402Z,12.90
2023-04-01T10:42:13.402Z,12.97
2023-04-01T10:43:13.386Z,12.94
2023-04-01T10:44:13.375Z,12.98
2023-04-01T10:45:13.359Z,13.04
2023-04-01T10:46:15.634Z,13.03
2023-04-01T10:47:13.348Z,13.05
2023-04-01T10:48:13.336Z,13.18
2023-04-01T10:49:13.332Z,13.18
2023-04-01T10:50:13.316Z,13.19
2023-04-01T10:51:13.308Z,13.23
2023-04-01T10:52:13.303Z,13.28
2023-04-01T10:53:13.294Z,13.22
2023-04-01T10:54:13.289Z,13.31
2023-04-01T10:55:13.273Z,13.18
2023-04-01T10:56:13.269Z,13.22
2023-04-01T10:57:13.294Z,13.27
2023-04-01T10:58:13.245Z,13.27
2023-04-01T10:59:13.242Z,13.16
2023-04-01T11:00:13.236Z,13.20
2023-04-01T11:01:13.246Z,13.08
2023-04-01T11:02:13.431Z,13.13
2023-04-01T11:03:13.293Z,13.11
2023-04-01T11:04:13.197Z,13.04
2023-04-01T11:05:13.182Z,13.11
2023-04-01T11:06:13.180Z,13.03
2023-04-01T11:07:13.189Z,13.09
2023-04-01T11:08:13.178Z,13.12
2023-04-01T11:09:13.155Z,13.25
2023-04-01T11:10:13.140Z,13.15
2023-04-01T11:11:13.132Z,13.11
2023-04-01T11:12:13.126Z,13.05
2023-04-01T11:13:13.118Z,13.03
2023-04-01T11:14:13.108Z,13.00
2023-04-01T11:15:13.094Z,12.98
2023-04-01T11:16:13.130Z,12.94
2023-04-01T11:17:13.083Z,12.94
2023-04-01T11:18:13.111Z,13.00
2023-04-01T11:19:13.075Z,12.91
2023-04-01T11:20:13.065Z,12.98
2023-04-01T11:21:13.047Z,13.04
2023-04-01T11:22:13.052Z,13.05
2023-04-01T11:23:13.026Z,13.04
2023-04-01T11:24:13.018Z,13.04
2023-04-01T11:25:13.006Z,13.08
2023-04-01T11:26:12.997Z,13.04
2023-04-01T11:27:13.055Z,13.12
2023-04-01T11:28:12.982Z,13.13
2023-04-01T11:29:12.975Z,13.08
2023-04-01T11:30:13.048Z,13.08
2023-04-01T11:31:12.972Z,13.11
2023-04-01T11:32:12.947Z,13.03
2023-04-01T11:33:12.981Z,13.05
2023-04-01T11:34:12.928Z,13.04
2023-04-01T11:35:12.930Z,13.08
2023-04-01T11:36:12.943Z,13.08
2023-04-01T11:37:12.904Z,13.05
2023-04-01T11:38:12.892Z,13.13
2023-04-01T11:39:12.886Z,13.12
2023-04-01T11:40:12.919Z,13.03
2023-04-01T11:41:12.869Z,13.13
2023-04-01T11:42:12.927Z,13.16
2023-04-01T11:43:19.983Z,13.13
2023-04-01T11:44:12.840Z,13.23
2023-04-01T11:45:12.829Z,13.12
2023-04-01T11:46:12.841Z,13.13
2023-04-01T11:47:12.825Z,13.16
2023-04-01T11:48:12.809Z,13.11
2023-04-01T11:49:12.791Z,13.13
2023-04-01T11:50:12.922Z,13.13
2023-04-01T11:51:12.789Z,13.03
2023-04-01T11:52:12.773Z,13.12
2023-04-01T11:53:12.764Z,13.18
2023-04-01T11:54:12.752Z,13.12
2023-04-01T11:55:12.742Z,13.11
2023-04-01T11:56:12.739Z,13.20
2023-04-01T11:57:12.764Z,13.23
2023-04-01T11:58:12.719Z,13.30
2023-04-01T11:59:12.772Z,13.23
2023-04-01T12:00:12.702Z,13.15
2023-04-01T12:01:12.695Z,13.12
2023-04-01T12:02:12.716Z,13.11
2023-04-01T12:03:12.764Z,13.13
2023-04-01T12:04:12.879Z,13.11
2023-04-01T12:05:12.661Z,13.09
2023-04-01T12:06:12.655Z,13.04
2023-04-01T12:07:12.641Z,13.11
2023-04-01T12:08:12.632Z,13.13
2023-04-01T12:09:12.624Z,13.09
2023-04-01T12:10:12.613Z,13.03
2023-04-01T12:11:12.609Z,13.12
2023-04-01T12:12:12.596Z,13.08
2023-04-01T12:13:12.596Z,13.16
2023-04-01T12:14:12.588Z,13.11
2023-04-01T12:15:12.574Z,13.12
2023-04-01T12:16:12.615Z,13.18
2023-04-01T12:17:12.555Z,13.09
2023-04-01T12:18:12.582Z,13.33
2023-04-01T12:19:12.544Z,13.23
2023-04-01T12:20:12.541Z,13.33
2023-04-01T12:21:12.527Z,13.31
2023-04-01T12:22:12.514Z,13.35
2023-04-01T12:23:12.515Z,13.33
2023-04-01T12:24:12.497Z,13.31
2023-04-01T12:25:12.488Z,13.27
2023-04-01T12:26:12.483Z,13.31
2023-04-01T12:27:12.481Z,13.38
2023-04-01T12:28:12.502Z,13.27
2023-04-01T12:29:12.468Z,13.35
2023-04-01T12:30:12.441Z,13.38
2023-04-01T12:31:12.456Z,13.39
2023-04-01T12:32:12.497Z,13.41
2023-04-01T12:33:12.468Z,13.38
2023-04-01T12:34:12.413Z,13.38
2023-04-01T12:35:12.405Z,13.44
2023-04-01T12:36:12.493Z,13.46
2023-04-01T12:37:12.391Z,13.52
2023-04-01T12:38:12.381Z,13.49
2023-04-01T12:39:12.372Z,13.57
2023-04-01T12:40:12.364Z,13.50
2023-04-01T12:41:12.422Z,13.42
2023-04-01T12:42:12.346Z,13.47
2023-04-01T12:43:12.337Z,13.31
2023-04-01T12:44:12.334Z,13.30
2023-04-01T12:45:12.334Z,13.27
2023-04-01T12:46:12.371Z,13.22
2023-04-01T12:47:12.310Z,13.15
2023-04-01T12:48:12.294Z,13.20
2023-04-01T12:49:12.284Z,13.23
2023-04-01T12:50:12.279Z,13.08
2023-04-01T12:51:12.277Z,13.13
2023-04-01T12:52:12.264Z,12.98
2023-04-01T12:53:12.250Z,13.03
2023-04-01T12:54:12.261Z,13.01
2023-04-01T12:55:12.232Z,12.97
2023-04-01T12:56:13.092Z,12.94
2023-04-01T12:57:12.277Z,12.90
2023-04-01T12:58:12.201Z,12.90
2023-04-01T12:59:12.207Z,12.79
2023-04-01T13:00:12.198Z,12.93
2023-04-01T13:01:12.247Z,12.82
2023-04-01T13:02:12.180Z,12.82
2023-04-01T13:03:12.159Z,12.79
2023-04-01T13:04:12.170Z,12.75
2023-04-01T13:05:12.160Z,12.78
2023-04-01T13:06:12.134Z,12.80
2023-04-01T13:07:12.131Z,12.86
2023-04-01T13:08:12.113Z,12.94
2023-04-01T13:09:12.106Z,12.87
2023-04-01T13:10:12.098Z,12.83
2023-04-01T13:11:12.085Z,13.01
2023-04-01T13:12:12.080Z,12.97
2023-04-01T13:13:12.067Z,13.03
2023-04-01T13:14:21.395Z,13.08
2023-04-01T13:15:12.065Z,13.12
2023-04-01T13:16:12.065Z,13.11
2023-04-01T13:17:12.039Z,13.13
2023-04-01T13:18:12.026Z,13.20
2023-04-01T13:19:12.022Z,13.22
2023-04-01T13:20:12.013Z,13.19
2023-04-01T13:21:12.010Z,13.27
2023-04-01T13:22:11.989Z,13.35
2023-04-01T13:23:11.994Z,13.31
2023-04-01T13:24:11.975Z,13.50
2023-04-01T13:25:11.967Z,13.50
2023-04-01T13:26:14.978Z,13.54
2023-04-01T13:27:11.968Z,13.50
2023-04-01T13:28:11.941Z,13.56
2023-04-01T13:29:11.930Z,13.72
2023-04-01T13:30:11.928Z,13.65
2023-04-01T13:31:11.953Z,13.71
2023-04-01T13:32:11.896Z,13.67
2023-04-01T13:33:11.942Z,13.70
2023-04-01T13:34:11.894Z,13.62
2023-04-01T13:35:11.873Z,13.74
2023-04-01T13:36:11.916Z,13.70
2023-04-01T13:37:11.863Z,13.70
2023-04-01T13:38:11.856Z,13.75
2023-04-01T13:39:11.854Z,13.74
2023-04-01T13:40:11.837Z,13.81
2023-04-01T13:41:11.822Z,13.90
2023-04-01T13:42:11.825Z,13.92
2023-04-01T13:43:11.809Z,14.03
2023-04-01T13:44:11.799Z,13.97
2023-04-01T13:45:11.788Z,13.99
2023-04-01T13:46:11.806Z,13.90
2023-04-01T13:47:11.777Z,13.96
2023-04-01T13:48:14.678Z,13.92
2023-04-01T13:49:11.760Z,14.00
2023-04-01T13:50:11.752Z,14.03
2023-04-01T13:51:11.748Z,14.03
2023-04-01T13:52:11.737Z,14.03
2023-04-01T13:53:11.728Z,13.86
2023-04-01T13:54:11.716Z,13.75
2023-04-01T13:55:11.710Z,13.74
2023-04-01T13:56:11.708Z,13.77
2023-04-01T13:57:11.729Z,13.79
2023-04-01T13:58:11.693Z,13.79
2023-04-01T13:59:11.675Z,13.75
2023-04-01T14:00:11.685Z,13.75
2023-04-01T14:01:11.703Z,13.78
2023-04-01T14:02:11.651Z,13.92
2023-04-01T14:03:11.711Z,14.00
2023-04-01T14:04:11.721Z,14.08
2023-04-01T14:05:11.633Z,13.90
2023-04-01T14:06:11.623Z,13.96
2023-04-01T14:07:11.615Z,13.81
2023-04-01T14:08:11.603Z,13.97
2023-04-01T14:09:11.589Z,13.95
2023-04-01T14:10:11.579Z,14.03
2023-04-01T14:11:11.577Z,13.99
2023-04-01T14:12:11.566Z,13.89
2023-04-01T14:13:11.557Z,13.83
2023-04-01T14:14:11.548Z,13.79
2023-04-01T14:15:11.536Z,13.97
2023-04-01T14:16:11.561Z,13.97
2023-04-01T14:17:11.522Z,13.92
2023-04-01T14:18:11.541Z,13.97
2023-04-01T14:19:11.523Z,13.95
2023-04-01T14:20:11.498Z,13.99
2023-04-01T14:21:11.484Z,13.96
2023-04-01T14:22:11.480Z,13.83
2023-04-01T14:23:11.473Z,13.83
2023-04-01T14:24:11.465Z,13.85
2023-04-01T14:25:11.454Z,13.89
2023-04-01T14:26:11.448Z,13.78
2023-04-01T14:27:11.441Z,13.75
2023-04-01T14:28:11.432Z,13.77
2023-04-01T14:29:11.422Z,13.83
2023-04-01T14:30:11.415Z,13.86
2023-04-01T14:31:11.407Z,13.96
2023-04-01T14:32:11.539Z,14.03
2023-04-01T14:33:11.442Z,14.00
2023-04-01T14:34:11.387Z,14.03
2023-04-01T14:35:11.373Z,14.12
2023-04-01T14:36:11.395Z,14.30
2023-04-01T14:37:11.355Z,14.23
2023-04-01T14:38:11.347Z,14.41
2023-04-01T14:39:11.338Z,14.22
2023-04-01T14:40:11.336Z,14.25
2023-04-01T14:41:11.321Z,14.20
2023-04-01T14:42:21.063Z,14.14
2023-04-01T14:43:11.310Z,14.18
2023-04-01T14:44:11.301Z,14.25
2023-04-01T14:45:11.291Z,14.18
2023-04-01T14:46:11.424Z,14.23
2023-04-01T14:47:11.277Z,14.17
2023-04-01T14:48:11.324Z,14.23
2023-04-01T14:49:11.260Z,14.10
2023-04-01T14:50:11.251Z,14.08
2023-04-01T14:51:11.237Z,14.04
2023-04-01T14:52:11.238Z,14.00
2023-04-01T14:53:11.223Z,14.03
2023-04-01T14:54:11.219Z,14.03
2023-04-01T14:55:11.208Z,14.03
2023-04-01T14:56:11.198Z,14.04
2023-04-01T14:57:11.238Z,13.95
2023-04-01T14:58:11.197Z,13.89
2023-04-01T14:59:11.186Z,13.92
2023-04-01T15:00:11.161Z,13.86
2023-04-01T15:01:11.203Z,13.74
2023-04-01T15:02:11.152Z,13.77
2023-04-01T15:03:11.292Z,13.83
2023-04-01T15:04:11.141Z,13.77
2023-04-01T15:05:11.175Z,13.72
2023-04-01T15:06:11.120Z,13.77
2023-04-01T15:07:11.117Z,13.81
2023-04-01T15:08:11.102Z,13.77
2023-04-01T15:09:11.089Z,13.70
2023-04-01T15:10:11.079Z,13.72
2023-04-01T15:11:11.076Z,13.71
2023-04-01T15:12:11.068Z,13.70
2023-04-01T15:13:11.057Z,13.70
2023-04-01T15:14:11.052Z,13.67
2023-04-01T15:15:11.040Z,13.77
2023-04-01T15:16:11.049Z,13.78
2023-04-01T15:17:11.032Z,13.79
2023-04-01T15:18:11.047Z,13.85
2023-04-01T15:19:11.015Z,13.79
2023-04-01T15:20:11.005Z,13.92
2023-04-01T15:21:10.985Z,13.99
2023-04-01T15:22:11.000Z,14.14
2023-04-01T15:23:10.979Z,14.17
2023-04-01T15:24:10.966Z,14.18
2023-04-01T15:25:10.958Z,14.22
2023-04-01T15:26:10.949Z,14.22
2023-04-01T15:27:13.340Z,14.25
2023-04-01T15:28:10.940Z,14.17
2023-04-01T15:29:10.932Z,14.15
2023-04-01T15:30:10.917Z,14.20
2023-04-01T15:31:10.932Z,14.18
2023-04-01T15:32:10.899Z,14.12
2023-04-01T15:33:10.891Z,14.05
2023-04-01T15:34:10.886Z,14.03